createdAt,value
2023-02-27T00:00:33.787Z,3.00
2023-02-27T00:03:21.593Z,10.90
2023-02-27T00:05:49.292Z,19.70
2023-02-27T00:08:16.975Z,19.90
2023-02-27T00:10:44.898Z,13.50
2023-02-27T00:13:12.653Z,14.00
2023-02-27T00:15:41.061Z,9.30
2023-02-27T00:18:08.869Z,10.70
2023-02-27T00:20:38.381Z,5.80
2023-02-27T00:23:06.889Z,7.40
2023-02-27T00:25:35.507Z,8.90
2023-02-27T00:28:04.405Z,12.40
2023-02-27T00:30:32.184Z,10.00
2023-02-27T00:33:00.038Z,7.70
2023-02-27T00:35:28.119Z,4.40
2023-02-27T00:37:56.053Z,3.20
2023-02-27T00:40:25.549Z,4.30
2023-02-27T00:42:53.830Z,2.20
2023-02-27T00:45:21.723Z,3.80
2023-02-27T00:47:49.450Z,4.90
2023-02-27T00:50:17.340Z,5.20
2023-02-27T00:52:45.132Z,3.20
2023-02-27T00:55:13.176Z,4.10
2023-02-27T00:57:41.282Z,4.60
2023-02-27T01:00:10.661Z,3.40
2023-02-27T01:02:39.052Z,5.30
2023-02-27T01:05:07.455Z,7.40
2023-02-27T01:07:35.160Z,4.90
2023-02-27T01:10:05.089Z,8.30
2023-02-27T01:12:33.113Z,4.10
2023-02-27T01:15:00.780Z,3.60
2023-02-27T01:17:28.604Z,5.30
2023-02-27T01:19:56.300Z,5.00
2023-02-27T01:22:24.628Z,10.50
2023-02-27T01:24:52.434Z,9.20
2023-02-27T01:27:20.073Z,8.30
2023-02-27T01:29:47.753Z,9.90
2023-02-27T01:32:15.470Z,7.20
2023-02-27T01:34:43.292Z,13.30
2023-02-27T01:37:11.091Z,11.30
2023-02-27T01:39:38.888Z,16.00
2023-02-27T01:42:20.877Z,19.00
2023-02-27T01:45:21.087Z,13.60
2023-02-27T01:47:56.351Z,9.50
2023-02-27T01:50:25.443Z,10.10
2023-02-27T01:52:59.871Z,8.30
2023-02-27T01:55:33.492Z,6.00
2023-02-27T01:58:01.328Z,8.20
2023-02-27T02:00:29.035Z,3.70
2023-02-27T02:03:14.248Z,5.90
2023-02-27T02:05:44.817Z,5.00
2023-02-27T02:08:18.519Z,3.50
2023-02-27T02:10:50.284Z,3.90
2023-02-27T02:13:22.591Z,6.50
2023-02-27T02:16:35.717Z,7.60
2023-02-27T02:19:30.347Z,8.20
2023-02-27T02:22:36.740Z,3.00
2023-02-27T02:25:47.644Z,7.20
2023-02-27T02:28:37.380Z,9.60
2023-02-27T02:31:57.504Z,9.80
2023-02-27T02:34:31.119Z,6.20
2023-02-27T02:38:02.648Z,7.60
2023-02-27T02:40:55.856Z,8.00
2023-02-27T02:44:02.317Z,6.00
2023-02-27T02:47:00.330Z,6.70
2023-02-27T02:49:57.567Z,5.90
2023-02-27T02:52:56.164Z,5.00
2023-02-27T02:55:54.986Z,7.30
2023-02-27T02:58:33.463Z,4.40
2023-02-27T03:01:26.636Z,5.50
2023-02-27T03:04:07.022Z,10.60
2023-02-27T03:06:43.276Z,9.90
2023-02-27T03:09:29.730Z,11.30
2023-02-27T03:12:01.078Z,16.30
2023-02-27T03:14:44.723Z,19.50
2023-02-27T03:17:29.528Z,21.80
2023-02-27T03:20:04.429Z,19.30
2023-02-27T03:22:40.079Z,51.90
2023-02-27T03:25:14.288Z,21.70
2023-02-27T03:28:09.436Z,26.30
2023-02-27T03:30:45.383Z,9.60
2023-02-27T03:33:31.247Z,7.30
2023-02-27T03:36:13.019Z,6.30
2023-02-27T03:38:51.300Z,4.80
2023-02-27T03:41:50.167Z,4.10
2023-02-27T03:44:49.212Z,5.30
2023-02-27T03:47:17.589Z,5.80
2023-02-27T03:49:45.422Z,8.00
2023-02-27T03:52:13.158Z,7.40
2023-02-27T03:54:53.395Z,6.90
2023-02-27T03:57:21.399Z,8.70
2023-02-27T03:59:49.822Z,8.50
2023-02-27T04:02:17.744Z,6.90
2023-02-27T04:04:45.599Z,8.40
2023-02-27T04:07:47.697Z,6.30
2023-02-27T04:10:39.874Z,4.80
2023-02-27T04:13:29.955Z,6.10
2023-02-27T04:16:35.909Z,6.80
2023-02-27T04:19:37.658Z,6.70
2023-02-27T04:22:35.082Z,9.20
2023-02-27T04:25:34.747Z,7.90
2023-02-27T04:28:08.439Z,7.80
2023-02-27T04:30:54.215Z,10.50
2023-02-27T04:33:33.875Z,6.40
2023-02-27T04:36:33.133Z,5.10
2023-02-27T04:39:18.165Z,5.60
2023-02-27T04:42:00.953Z,4.90
2023-02-27T04:44:33.389Z,5.20
2023-02-27T04:47:05.652Z,8.70
2023-02-27T04:49:42.355Z,6.40
2023-02-27T04:52:30.030Z,16.60
2023-02-27T04:55:24.339Z,8.70
2023-02-27T04:58:03.004Z,9.50
2023-02-27T05:00:35.132Z,13.10
2023-02-27T05:03:14.384Z,11.10
2023-02-27T05:05:46.234Z,9.00
2023-02-27T05:08:46.773Z,6.90
2023-02-27T05:11:28.789Z,6.90
2023-02-27T05:14:42.555Z,7.70
2023-02-27T05:17:20.962Z,7.30
2023-02-27T05:19:49.685Z,5.00
2023-02-27T05:22:45.294Z,8.40
2023-02-27T05:25:26.950Z,8.60
2023-02-27T05:28:04.956Z,16.50
2023-02-27T05:30:57.483Z,13.30
2023-02-27T05:33:35.507Z,13.40
2023-02-27T05:36:10.596Z,12.50
2023-02-27T05:38:49.683Z,12.60
2023-02-27T05:41:29.928Z,9.50
2023-02-27T05:44:22.808Z,10.60
2023-02-27T05:47:08.151Z,9.20
2023-02-27T05:49:45.730Z,11.50
2023-02-27T05:52:21.840Z,7.10
2023-02-27T05:55:06.748Z,7.50
2023-02-27T05:57:45.546Z,12.40
2023-02-27T06:00:49.401Z,14.00
2023-02-27T06:03:18.037Z,15.90
2023-02-27T06:05:47.290Z,11.90
2023-02-27T06:08:16.278Z,15.70
2023-02-27T06:10:43.970Z,16.30
2023-02-27T06:13:12.036Z,12.90
2023-02-27T06:15:39.717Z,8.20
2023-02-27T06:18:07.348Z,9.00
2023-02-27T06:20:35.086Z,11.40
2023-02-27T06:23:02.881Z,12.40
2023-02-27T06:25:31.258Z,16.40
2023-02-27T06:27:59.160Z,21.40
2023-02-27T06:30:27.372Z,14.40
2023-02-27T06:32:55.386Z,21.40
2023-02-27T06:35:23.908Z,16.40
2023-02-27T06:37:51.623Z,29.90
2023-02-27T06:40:19.371Z,17.40
2023-02-27T06:42:47.150Z,21.00
2023-02-27T06:45:16.554Z,19.10
2023-02-27T06:47:44.593Z,26.40
2023-02-27T06:50:14.326Z,23.70
2023-02-27T06:52:42.186Z,17.20
2023-02-27T06:55:11.260Z,21.50
2023-02-27T06:57:39.262Z,12.10
2023-02-27T07:00:08.263Z,20.00
2023-02-27T07:02:35.934Z,16.10
2023-02-27T07:05:08.240Z,17.10
2023-02-27T07:07:38.743Z,15.50
2023-02-27T07:10:13.480Z,20.70
2023-02-27T07:12:42.107Z,16.50
2023-02-27T07:15:11.247Z,17.80
2023-02-27T07:17:39.480Z,19.60
2023-02-27T07:20:10.668Z,12.40
2023-02-27T07:22:40.970Z,14.70
2023-02-27T07:25:09.726Z,13.20
2023-02-27T07:27:37.883Z,16.50
2023-02-27T07:30:06.923Z,20.40
2023-02-27T07:32:34.985Z,21.90
2023-02-27T07:35:04.059Z,17.70
2023-02-27T07:37:32.010Z,15.10
2023-02-27T07:39:59.890Z,11.70
2023-02-27T07:42:27.704Z,14.30
2023-02-27T07:44:55.433Z,16.40
2023-02-27T07:47:23.773Z,14.60
2023-02-27T07:49:52.599Z,12.60
2023-02-27T07:52:20.472Z,13.80
2023-02-27T07:54:48.280Z,14.20
2023-02-27T07:57:16.044Z,10.30
2023-02-27T07:59:43.943Z,12.60
2023-02-27T08:02:12.599Z,29.20
2023-02-27T08:04:40.409Z,25.10
2023-02-27T08:07:08.280Z,37.50
2023-02-27T08:09:36.621Z,58.30
2023-02-27T08:12:06.584Z,53.20
2023-02-27T08:14:34.466Z,32.00
2023-02-27T08:17:02.237Z,15.60
2023-02-27T08:19:30.082Z,17.30
2023-02-27T08:21:57.840Z,15.90
2023-02-27T08:24:25.776Z,16.70
2023-02-27T08:26:53.465Z,20.90
2023-02-27T08:29:21.377Z,22.10
2023-02-27T08:31:49.382Z,27.10
2023-02-27T08:34:17.400Z,33.30
2023-02-27T08:36:45.627Z,19.30
2023-02-27T08:39:13.500Z,19.70
2023-02-27T08:41:41.922Z,14.80
2023-02-27T08:44:13.022Z,22.20
2023-02-27T08:46:40.739Z,16.50
2023-02-27T08:49:08.544Z,18.00
2023-02-27T08:51:36.168Z,15.60
2023-02-27T08:54:04.533Z,11.30
2023-02-27T08:56:34.500Z,16.80
2023-02-27T08:59:02.835Z,14.30
2023-02-27T09:01:34.506Z,11.90
2023-02-27T09:04:05.525Z,15.10
2023-02-27T09:06:36.547Z,10.30
2023-02-27T09:09:05.706Z,10.40
2023-02-27T09:11:33.719Z,9.30
2023-02-27T09:14:01.452Z,7.60
2023-02-27T09:16:29.460Z,9.90
2023-02-27T09:18:57.646Z,12.70
2023-02-27T09:21:25.532Z,19.50
2023-02-27T09:23:53.356Z,15.90
2023-02-27T09:26:28.942Z,25.90
2023-02-27T09:29:03.976Z,22.70
2023-02-27T09:31:33.409Z,18.20
2023-02-27T09:34:01.697Z,40.60
2023-02-27T09:36:29.704Z,15.10
2023-02-27T09:38:59.517Z,10.10
2023-02-27T09:42:28.678Z,49.80
2023-02-27T09:45:05.474Z,14.50
2023-02-27T09:47:50.464Z,11.10
2023-02-27T09:50:31.865Z,9.20
2023-02-27T09:53:00.938Z,13.70
2023-02-27T09:55:36.723Z,13.70
2023-02-27T09:58:34.866Z,15.90
2023-02-27T10:01:30.494Z,12.70
2023-02-27T10:04:25.436Z,16.70
2023-02-27T10:07:13.956Z,8.70
2023-02-27T10:10:04.928Z,7.50
2023-02-27T10:13:07.930Z,9.00
2023-02-27T10:15:46.948Z,9.30
2023-02-27T10:18:29.047Z,7.50
2023-02-27T10:21:07.572Z,11.70
2023-02-27T10:23:56.687Z,7.80
2023-02-27T10:26:30.356Z,10.80
2023-02-27T10:29:10.723Z,10.30
2023-02-27T10:31:38.965Z,7.80
2023-02-27T10:34:12.917Z,7.80
2023-02-27T10:36:41.085Z,9.40
2023-02-27T10:39:16.900Z,8.60
2023-02-27T10:41:46.791Z,7.40
2023-02-27T10:44:18.817Z,7.20
2023-02-27T10:46:50.607Z,6.30
2023-02-27T10:49:22.061Z,7.60
2023-02-27T10:52:11.379Z,10.50
2023-02-27T10:54:41.859Z,10.10
2023-02-27T10:57:42.304Z,9.50
2023-02-27T11:00:55.409Z,11.40
2023-02-27T11:03:41.129Z,8.60
2023-02-27T11:06:23.816Z,5.40
2023-02-27T11:09:21.224Z,6.40
2023-02-27T11:11:53.480Z,10.50
2023-02-27T11:14:33.761Z,4.40
2023-02-27T11:17:03.359Z,9.20
2023-02-27T11:19:40.139Z,6.20
2023-02-27T11:22:21.309Z,9.70
2023-02-27T11:24:49.789Z,11.20
2023-02-27T11:27:29.296Z,10.50
2023-02-27T11:30:06.659Z,7.90
2023-02-27T11:32:45.855Z,8.40
2023-02-27T11:35:36.919Z,6.00
2023-02-27T11:38:16.978Z,6.60
2023-02-27T11:40:55.553Z,6.00
2023-02-27T11:43:49.695Z,7.50
2023-02-27T11:46:36.468Z,7.30
2023-02-27T11:49:37.393Z,5.20
2023-02-27T11:52:27.145Z,4.90
2023-02-27T11:55:00.747Z,6.60
2023-02-27T11:57:38.509Z,6.30
2023-02-27T12:00:33.066Z,4.60
2023-02-27T12:03:26.096Z,4.80
2023-02-27T12:05:59.963Z,9.60
2023-02-27T12:08:44.293Z,4.70
2023-02-27T12:11:32.891Z,7.60
2023-02-27T12:14:23.628Z,5.00
2023-02-27T12:17:01.671Z,8.70
2023-02-27T12:19:37.673Z,6.70
2023-02-27T12:22:35.685Z,5.00
2023-02-27T12:25:29.689Z,17.10
2023-02-27T12:28:54.842Z,11.60
2023-02-27T12:31:39.805Z,10.50
2023-02-27T12:34:16.183Z,10.00
2023-02-27T12:36:44.683Z,7.10
2023-02-27T12:39:23.250Z,6.60
2023-02-27T12:42:28.684Z,7.30
2023-02-27T12:45:11.119Z,8.90
2023-02-27T12:48:21.148Z,7.20
2023-02-27T12:51:46.240Z,5.20
2023-02-27T12:54:51.475Z,10.20
2023-02-27T12:57:44.971Z,7.90
2023-02-27T13:00:29.066Z,9.00
2023-02-27T13:03:09.976Z,6.00
2023-02-27T13:06:07.593Z,6.10
2023-02-27T13:08:57.004Z,7.30
2023-02-27T13:12:21.590Z,6.80
2023-02-27T13:15:06.297Z,6.70
2023-02-27T13:17:49.434Z,6.20
2023-02-27T13:20:49.991Z,7.30
2023-02-27T13:23:37.810Z,7.40
2023-02-27T13:26:20.768Z,6.00
2023-02-27T13:28:50.820Z,7.30
2023-02-27T13:31:42.634Z,10.90
2023-02-27T13:34:30.514Z,8.10
2023-02-27T13:37:05.559Z,6.30
2023-02-27T13:39:45.957Z,9.70
2023-02-27T13:42:33.977Z,11.10
2023-02-27T13:45:45.016Z,7.20
2023-02-27T13:48:43.736Z,8.70
2023-02-27T13:51:38.446Z,6.10
2023-02-27T13:54:15.386Z,4.60
2023-02-27T13:56:57.583Z,5.40
2023-02-27T13:59:33.350Z,6.90
2023-02-27T14:02:31.021Z,5.80
2023-02-27T14:05:03.834Z,7.70
2023-02-27T14:08:05.371Z,7.20
2023-02-27T14:10:37.420Z,5.10
2023-02-27T14:13:45.018Z,7.40
2023-02-27T14:16:39.799Z,4.00
2023-02-27T14:19:17.350Z,4.10
2023-02-27T14:21:51.222Z,6.00
2023-02-27T14:24:26.237Z,12.50
2023-02-27T14:26:55.003Z,7.20
2023-02-27T14:29:33.395Z,8.70
2023-02-27T14:32:08.869Z,12.70
2023-02-27T14:34:40.721Z,10.50
2023-02-27T14:37:17.997Z,8.60
2023-02-27T14:39:50.832Z,5.50
2023-02-27T14:42:44.297Z,6.10
2023-02-27T14:45:24.288Z,6.00
2023-02-27T14:47:53.226Z,6.30
2023-02-27T14:50:29.812Z,7.10
2023-02-27T14:52:57.960Z,5.20
2023-02-27T14:55:32.716Z,4.90
2023-02-27T14:58:21.796Z,7.10
2023-02-27T15:00:55.764Z,4.60
2023-02-27T15:03:35.716Z,5.90
2023-02-27T15:06:14.342Z,10.30
2023-02-27T15:08:48.746Z,7.40
2023-02-27T15:11:22.242Z,6.70
2023-02-27T15:14:02.064Z,7.90
2023-02-27T15:16:37.308Z,6.50
2023-02-27T15:19:28.194Z,8.00
2023-02-27T15:22:00.403Z,6.90
2023-02-27T15:24:49.807Z,3.80
2023-02-27T15:27:22.873Z,7.10
2023-02-27T15:29:58.095Z,5.50
2023-02-27T15:32:30.278Z,6.40
2023-02-27T15:35:03.661Z,5.10
2023-02-27T15:37:34.432Z,7.20
2023-02-27T15:40:02.565Z,11.20
2023-02-27T15:42:36.440Z,18.10
2023-02-27T15:45:06.879Z,13.70
2023-02-27T15:47:35.989Z,15.10
2023-02-27T15:50:15.793Z,15.50
2023-02-27T15:53:10.221Z,9.40
2023-02-27T15:55:46.826Z,7.80
2023-02-27T15:58:28.507Z,11.40
2023-02-27T16:01:13.952Z,7.00
2023-02-27T16:03:47.737Z,6.90
2023-02-27T16:06:25.074Z,9.30
2023-02-27T16:08:57.786Z,14.20
2023-02-27T16:11:29.801Z,7.70
2023-02-27T16:13:58.350Z,10.00
2023-02-27T16:16:32.605Z,7.20
2023-02-27T16:19:26.249Z,8.60
2023-02-27T16:22:13.273Z,8.50
2023-02-27T16:24:42.956Z,6.70
2023-02-27T16:27:24.625Z,10.50
2023-02-27T16:29:56.214Z,8.70
2023-02-27T16:32:26.393Z,9.60
2023-02-27T16:35:19.121Z,11.70
2023-02-27T16:37:49.341Z,9.00
2023-02-27T16:40:24.338Z,8.60
2023-02-27T16:42:53.391Z,10.80
2023-02-27T16:45:28.487Z,6.60
2023-02-27T16:48:00.207Z,11.00
2023-02-27T16:50:33.543Z,10.20
2023-02-27T16:53:01.422Z,10.60
2023-02-27T16:55:33.548Z,7.80
2023-02-27T16:58:01.608Z,9.10
2023-02-27T17:00:29.632Z,11.60
2023-02-27T17:02:57.367Z,9.70
2023-02-27T17:05:26.381Z,11.60
2023-02-27T17:07:54.145Z,13.10
2023-02-27T17:10:24.742Z,15.90
2023-02-27T17:12:52.791Z,16.50
2023-02-27T17:15:20.919Z,8.50
2023-02-27T17:17:48.720Z,17.20
2023-02-27T17:20:16.436Z,14.40
2023-02-27T17:22:45.143Z,14.60
2023-02-27T17:25:14.044Z,9.40
2023-02-27T17:27:43.752Z,8.60
2023-02-27T17:30:13.407Z,6.80
2023-02-27T17:32:41.250Z,9.70
2023-02-27T17:35:10.154Z,11.10
2023-02-27T17:37:38.148Z,6.90
2023-02-27T17:40:08.218Z,7.30
2023-02-27T17:42:37.192Z,7.70
2023-02-27T17:45:07.654Z,8.70
2023-02-27T17:47:36.033Z,6.10
2023-02-27T17:50:05.394Z,7.70
2023-02-27T17:52:37.013Z,8.20
2023-02-27T17:55:08.642Z,8.60
2023-02-27T17:57:38.823Z,6.40
2023-02-27T18:00:10.596Z,9.20
2023-02-27T18:02:38.328Z,12.40
2023-02-27T18:05:07.552Z,11.80
2023-02-27T18:07:35.555Z,14.90
2023-02-27T18:10:06.017Z,13.90
2023-02-27T18:12:34.239Z,14.40
2023-02-27T18:15:02.529Z,19.50
2023-02-27T18:17:30.220Z,20.50
2023-02-27T18:19:58.209Z,18.40
2023-02-27T18:22:26.575Z,29.50
2023-02-27T18:24:55.961Z,21.30
2023-02-27T18:27:23.985Z,22.30
2023-02-27T18:29:51.800Z,21.40
2023-02-27T18:32:19.869Z,23.30
2023-02-27T18:34:47.668Z,21.10
2023-02-27T18:37:15.585Z,21.40
2023-02-27T18:39:44.192Z,18.00
2023-02-27T18:42:11.971Z,20.60
2023-02-27T18:44:41.440Z,10.60
2023-02-27T18:47:09.777Z,15.00
2023-02-27T18:49:38.073Z,13.00
2023-02-27T18:52:06.009Z,12.90
2023-02-27T18:54:33.886Z,11.00
2023-02-27T18:57:01.746Z,13.20
2023-02-27T18:59:29.566Z,10.70
2023-02-27T19:01:58.047Z,13.20
2023-02-27T19:04:25.896Z,13.10
2023-02-27T19:06:53.731Z,12.40
2023-02-27T19:09:22.328Z,13.30
2023-02-27T19:11:50.169Z,14.80
2023-02-27T19:14:18.141Z,13.10
2023-02-27T19:16:46.479Z,11.60
2023-02-27T19:19:14.456Z,11.00
2023-02-27T19:21:43.105Z,12.40
2023-02-27T19:24:13.600Z,15.30
2023-02-27T19:26:41.486Z,12.30
2023-02-27T19:29:09.546Z,17.10
2023-02-27T19:31:37.374Z,11.90
2023-02-27T19:34:05.350Z,16.10
2023-02-27T19:36:34.800Z,10.30
2023-02-27T19:39:04.425Z,20.30
2023-02-27T19:41:33.622Z,18.40
2023-02-27T19:44:01.637Z,18.80
2023-02-27T19:46:33.858Z,20.10
2023-02-27T19:49:05.920Z,18.70
2023-02-27T19:51:34.227Z,15.30
2023-02-27T19:54:02.186Z,17.90
2023-02-27T19:56:30.477Z,13.20
2023-02-27T19:59:00.820Z,14.80
2023-02-27T20:01:36.332Z,8.40
2023-02-27T20:04:05.123Z,12.50
2023-02-27T20:06:42.210Z,11.50
2023-02-27T20:09:15.307Z,13.10
2023-02-27T20:11:45.254Z,13.70
2023-02-27T20:14:16.612Z,11.30
2023-02-27T20:16:45.369Z,12.10
2023-02-27T20:19:18.674Z,9.40
2023-02-27T20:21:47.837Z,10.90
2023-02-27T20:24:18.069Z,14.30
2023-02-27T20:26:52.385Z,10.10
2023-02-27T20:29:24.722Z,11.40
2023-02-27T20:31:55.749Z,10.60
2023-02-27T20:34:26.405Z,10.50
2023-02-27T20:36:56.091Z,10.40
2023-02-27T20:39:24.434Z,11.30
2023-02-27T20:41:52.122Z,12.10
2023-02-27T20:44:19.863Z,11.20
2023-02-27T20:46:49.326Z,11.60
2023-02-27T20:49:18.328Z,9.40
2023-02-27T20:51:46.516Z,13.60
2023-02-27T20:54:20.285Z,15.30
2023-02-27T20:56:54.430Z,8.50
2023-02-27T20:59:25.223Z,11.20
2023-02-27T21:01:54.867Z,11.60
2023-02-27T21:04:42.679Z,13.40
2023-02-27T21:07:14.303Z,10.10
2023-02-27T21:09:42.207Z,14.50
2023-02-27T21:12:10.978Z,16.60
2023-02-27T21:14:39.638Z,15.20
2023-02-27T21:17:07.407Z,11.80
2023-02-27T21:19:35.460Z,8.80
2023-02-27T21:22:03.784Z,8.80
2023-02-27T21:24:32.175Z,11.80
2023-02-27T21:26:59.895Z,10.00
2023-02-27T21:29:27.644Z,7.40
2023-02-27T21:31:55.409Z,7.90
2023-02-27T21:34:27.688Z,10.40
2023-02-27T21:36:55.973Z,9.50
2023-02-27T21:39:28.255Z,13.60
2023-02-27T21:41:56.446Z,15.60
2023-02-27T21:44:25.259Z,13.70
2023-02-27T21:46:55.951Z,11.70
2023-02-27T21:49:29.066Z,11.10
2023-02-27T21:51:57.108Z,11.30
2023-02-27T21:54:24.956Z,16.40
2023-02-27T21:56:52.750Z,20.70
2023-02-27T21:59:21.604Z,20.40
2023-02-27T22:01:49.449Z,18.80
2023-02-27T22:04:19.983Z,16.30
2023-02-27T22:06:50.215Z,21.60
2023-02-27T22:09:18.361Z,23.80
2023-02-27T22:11:47.493Z,24.50
2023-02-27T22:14:15.953Z,36.00
2023-02-27T22:16:43.899Z,32.70
2023-02-27T22:19:19.792Z,32.90
2023-02-27T22:21:48.472Z,25.90
2023-02-27T22:24:16.382Z,22.30
2023-02-27T22:26:45.717Z,19.60
2023-02-27T22:29:13.980Z,16.30
2023-02-27T22:31:41.781Z,18.50
2023-02-27T22:34:18.474Z,13.60
2023-02-27T22:36:48.774Z,11.20
2023-02-27T22:39:16.639Z,11.30
2023-02-27T22:41:46.040Z,12.60
2023-02-27T22:44:16.592Z,12.40
2023-02-27T22:46:49.841Z,14.90
2023-02-27T22:49:21.840Z,12.90
2023-02-27T22:51:52.046Z,17.80
2023-02-27T22:54:22.596Z,15.40
2023-02-27T22:56:52.731Z,17.10
2023-02-27T22:59:21.470Z,15.30
2023-02-27T23:01:50.374Z,16.50
2023-02-27T23:04:18.790Z,18.10
2023-02-27T23:06:46.755Z,15.10
2023-02-27T23:09:19.322Z,16.40
2023-02-27T23:11:47.685Z,15.60
2023-02-27T23:14:16.589Z,11.80
2023-02-27T23:16:45.569Z,13.20
2023-02-27T23:19:18.179Z,9.40
2023-02-27T23:21:46.091Z,9.20
2023-02-27T23:24:18.132Z,10.10
2023-02-27T23:26:50.625Z,7.60
2023-02-27T23:29:19.132Z,10.70
2023-02-27T23:31:47.111Z,9.20
2023-02-27T23:34:15.047Z,9.80
2023-02-27T23:36:42.738Z,11.80
2023-02-27T23:39:10.530Z,12.70
2023-02-27T23:41:38.310Z,8.40
2023-02-27T23:44:25.000Z,11.30
2023-02-27T23:46:52.972Z,9.40
2023-02-27T23:49:20.816Z,13.60
2023-02-27T23:51:48.525Z,9.50
2023-02-27T23:54:16.196Z,9.10
2023-02-27T23:56:46.762Z,9.60
2023-02-27T23:59:14.646Z,11.10
